createdAt,value
2022-08-28T00:01:57.435Z,21.92
2022-08-28T00:04:30.209Z,21.89
2022-08-28T00:07:04.088Z,21.84
2022-08-28T00:09:30.589Z,21.82
2022-08-28T00:12:04.074Z,21.81
2022-08-28T00:14:37.066Z,21.82
2022-08-28T00:17:04.207Z,21.87
2022-08-28T00:19:38.778Z,21.84
2022-08-28T00:22:13.116Z,21.80
2022-08-28T00:24:51.078Z,21.82
2022-08-28T00:27:46.070Z,21.75
2022-08-28T00:30:12.798Z,21.73
2022-08-28T00:32:46.079Z,21.85
2022-08-28T00:35:12.653Z,21.82
2022-08-28T00:37:48.138Z,21.83
2022-08-28T00:40:32.336Z,21.71
2022-08-28T00:43:07.199Z,21.67
2022-08-28T00:45:41.156Z,21.56
2022-08-28T00:48:08.186Z,21.71
2022-08-28T00:51:02.084Z,21.68
2022-08-28T00:53:36.200Z,21.67
2022-08-28T00:56:09.461Z,21.60
2022-08-28T00:58:49.081Z,21.56
2022-08-28T01:01:17.441Z,21.45
2022-08-28T01:03:51.103Z,21.34
2022-08-28T01:06:20.599Z,21.36
2022-08-28T01:08:56.110Z,21.42
2022-08-28T01:11:25.943Z,21.33
2022-08-28T01:14:01.985Z,21.38
2022-08-28T01:16:33.052Z,21.34
2022-08-28T01:19:08.084Z,21.46
2022-08-28T01:21:45.900Z,21.42
2022-08-28T01:24:21.076Z,21.33
2022-08-28T01:26:47.788Z,21.35
2022-08-28T01:29:21.072Z,21.18
2022-08-28T01:31:48.924Z,21.17
2022-08-28T01:34:22.108Z,21.13
2022-08-28T01:36:48.853Z,21.15
2022-08-28T01:39:23.095Z,21.19
2022-08-28T01:41:52.068Z,21.22
2022-08-28T01:44:33.171Z,21.38
2022-08-28T01:47:06.265Z,21.41
2022-08-28T01:49:40.062Z,21.14
2022-08-28T01:52:06.933Z,21.02
2022-08-28T01:54:40.109Z,21.00
2022-08-28T01:57:14.112Z,20.97
2022-08-28T01:59:47.147Z,20.82
2022-08-28T02:02:14.124Z,20.64
2022-08-28T02:04:48.441Z,20.62
2022-08-28T02:07:23.066Z,20.39
2022-08-28T02:09:49.753Z,20.15
2022-08-28T02:12:23.110Z,20.04
2022-08-28T02:14:49.756Z,20.00
2022-08-28T02:17:23.071Z,19.64
2022-08-28T02:19:49.652Z,19.27
2022-08-28T02:22:23.066Z,19.13
2022-08-28T02:24:49.752Z,19.06
2022-08-28T02:27:23.050Z,19.06
2022-08-28T02:29:49.891Z,18.95
2022-08-28T02:32:24.068Z,18.76
2022-08-28T02:34:50.633Z,18.68
2022-08-28T02:37:24.088Z,18.64
2022-08-28T02:39:59.821Z,18.71
2022-08-28T02:42:33.247Z,18.59
2022-08-28T02:45:20.048Z,18.48
2022-08-28T02:47:54.074Z,18.59
2022-08-28T02:50:21.035Z,20.93
2022-08-28T02:52:54.073Z,20.58
2022-08-28T02:55:21.097Z,19.60
2022-08-28T02:57:55.072Z,19.40
2022-08-28T03:00:23.363Z,19.74
2022-08-28T03:02:57.116Z,19.93
2022-08-28T03:05:24.751Z,20.27
2022-08-28T03:08:00.064Z,20.38
2022-08-28T03:10:26.711Z,20.48
2022-08-28T03:13:00.039Z,20.53
2022-08-28T03:15:26.565Z,20.49
2022-08-28T03:18:00.095Z,20.49
2022-08-28T03:20:33.042Z,20.46
2022-08-28T03:23:25.135Z,20.24
2022-08-28T03:25:59.066Z,20.32
2022-08-28T03:28:33.079Z,20.31
2022-08-28T03:30:59.886Z,20.27
2022-08-28T03:33:33.059Z,20.05
2022-08-28T03:35:59.697Z,20.17
2022-08-28T03:38:33.037Z,20.35
2022-08-28T03:40:59.665Z,20.39
2022-08-28T03:43:34.100Z,20.47
2022-08-28T03:46:14.076Z,20.60
2022-08-28T03:48:48.048Z,21.03
2022-08-28T03:51:29.706Z,21.35
2022-08-28T03:53:57.640Z,21.79
2022-08-28T03:56:25.144Z,22.21
2022-08-28T03:58:59.053Z,22.07
2022-08-28T04:01:33.082Z,22.02
2022-08-28T04:04:06.047Z,20.34
2022-08-28T04:06:39.147Z,20.24
2022-08-28T04:09:06.651Z,20.20
2022-08-28T04:11:37.530Z,20.28
2022-08-28T04:14:11.058Z,20.25
2022-08-28T04:16:45.110Z,20.24
2022-08-28T04:19:11.826Z,20.25
2022-08-28T04:21:46.073Z,20.32
2022-08-28T04:24:13.402Z,20.31
2022-08-28T04:26:48.046Z,20.52
2022-08-28T04:29:15.051Z,20.44
2022-08-28T04:31:48.070Z,20.46
2022-08-28T04:34:14.756Z,20.34
2022-08-28T04:36:48.059Z,20.20
2022-08-28T04:39:14.726Z,20.11
2022-08-28T04:41:48.040Z,20.18
2022-08-28T04:44:24.257Z,20.02
2022-08-28T04:46:58.055Z,19.85
2022-08-28T04:49:25.845Z,19.84
2022-08-28T04:51:59.044Z,19.70
2022-08-28T04:54:25.738Z,19.71
2022-08-28T04:56:59.024Z,19.82
2022-08-28T04:59:25.634Z,19.78
2022-08-28T05:01:52.311Z,19.92
2022-08-28T05:04:26.064Z,20.03
2022-08-28T05:06:52.906Z,20.15
2022-08-28T05:09:27.025Z,20.15
2022-08-28T05:11:53.670Z,20.20
2022-08-28T05:14:28.046Z,20.27
2022-08-28T05:17:04.289Z,20.22
2022-08-28T05:19:39.033Z,20.29
2022-08-28T05:22:05.967Z,20.18
2022-08-28T05:24:39.037Z,20.23
2022-08-28T05:27:06.410Z,20.38
2022-08-28T05:29:40.196Z,20.43
2022-08-28T05:32:07.404Z,20.31
2022-08-28T05:34:41.055Z,19.86
2022-08-28T05:37:08.919Z,19.13
2022-08-28T05:39:42.043Z,19.10
2022-08-28T05:42:08.723Z,18.98
2022-08-28T05:44:49.020Z,19.03
2022-08-28T05:47:22.456Z,19.16
2022-08-28T05:49:55.084Z,19.13
2022-08-28T05:52:21.879Z,19.14
2022-08-28T05:54:55.037Z,19.14
2022-08-28T05:57:21.574Z,19.10
2022-08-28T05:59:55.094Z,19.15
2022-08-28T06:02:21.934Z,19.26
2022-08-28T06:04:56.092Z,19.42
2022-08-28T06:07:23.019Z,19.50
2022-08-28T06:09:56.088Z,19.47
2022-08-28T06:12:22.731Z,19.49
2022-08-28T06:14:56.044Z,19.56
2022-08-28T06:17:23.985Z,19.51
2022-08-28T06:19:58.076Z,19.53
2022-08-28T06:22:35.593Z,19.46
2022-08-28T06:25:09.089Z,19.40
2022-08-28T06:27:46.035Z,19.46
2022-08-28T06:30:19.013Z,19.49
2022-08-28T06:32:47.717Z,19.50
2022-08-28T06:35:14.276Z,19.47
2022-08-28T06:37:47.216Z,19.53
2022-08-28T06:40:21.050Z,19.61
2022-08-28T06:42:54.085Z,19.73
2022-08-28T06:45:34.451Z,19.78
2022-08-28T06:48:14.190Z,19.74
2022-08-28T06:50:42.175Z,19.78
2022-08-28T06:53:17.140Z,19.91
2022-08-28T06:55:44.373Z,19.89
2022-08-28T06:58:19.256Z,19.91
2022-08-28T07:00:46.004Z,20.06
2022-08-28T07:03:20.298Z,20.01
2022-08-28T07:05:47.107Z,20.01
2022-08-28T07:08:20.109Z,20.05
2022-08-28T07:10:47.618Z,20.16
2022-08-28T07:13:21.153Z,20.14
2022-08-28T07:15:55.367Z,20.24
2022-08-28T07:18:22.413Z,20.18
2022-08-28T07:21:02.003Z,20.11
2022-08-28T07:23:29.318Z,20.14
2022-08-28T07:26:04.040Z,20.10
2022-08-28T07:28:30.864Z,20.11
2022-08-28T07:31:04.676Z,20.17
2022-08-28T07:33:39.037Z,20.13
2022-08-28T07:36:29.415Z,20.10
2022-08-28T07:38:57.826Z,20.01
2022-08-28T07:41:32.012Z,19.97
2022-08-28T07:44:24.135Z,19.99
2022-08-28T07:47:06.140Z,20.01
2022-08-28T07:49:35.632Z,19.82
2022-08-28T07:52:16.678Z,19.70
2022-08-28T07:54:43.315Z,19.71
2022-08-28T07:57:17.070Z,19.74
2022-08-28T07:59:43.624Z,19.55
2022-08-28T08:02:17.128Z,19.49
2022-08-28T08:04:44.311Z,19.46
2022-08-28T08:07:18.998Z,19.45
2022-08-28T08:09:46.823Z,19.38
2022-08-28T08:12:22.012Z,19.39
2022-08-28T08:14:49.649Z,19.39
2022-08-28T08:17:23.038Z,19.42
2022-08-28T08:19:49.835Z,19.60
2022-08-28T08:22:23.018Z,19.61
2022-08-28T08:24:49.575Z,19.65
2022-08-28T08:27:23.001Z,19.55
2022-08-28T08:29:57.079Z,19.54
2022-08-28T08:32:23.683Z,19.51
2022-08-28T08:34:59.051Z,19.58
2022-08-28T08:37:32.019Z,19.64
2022-08-28T08:39:59.335Z,19.70
2022-08-28T08:42:34.350Z,19.74
2022-08-28T08:45:15.064Z,19.75
2022-08-28T08:47:58.115Z,19.74
2022-08-28T08:50:27.245Z,19.73
2022-08-28T08:53:16.070Z,19.87
2022-08-28T08:55:45.328Z,20.00
2022-08-28T08:58:44.496Z,20.00
2022-08-28T09:01:23.662Z,19.97
2022-08-28T09:04:05.999Z,20.02
2022-08-28T09:06:33.026Z,20.07
2022-08-28T09:09:09.282Z,20.15
2022-08-28T09:11:56.393Z,20.20
2022-08-28T09:14:43.114Z,20.14
2022-08-28T09:17:17.124Z,20.09
2022-08-28T09:19:43.771Z,20.18
2022-08-28T09:22:17.111Z,20.18
2022-08-28T09:24:43.944Z,20.14
2022-08-28T09:27:39.596Z,20.16
2022-08-28T09:30:08.609Z,20.25
2022-08-28T09:32:48.026Z,20.17
2022-08-28T09:35:48.292Z,20.23
2022-08-28T09:38:27.620Z,20.18
2022-08-28T09:41:27.288Z,20.24
2022-08-28T09:44:01.032Z,20.26
2022-08-28T09:46:44.876Z,20.39
2022-08-28T09:49:20.386Z,20.25
2022-08-28T09:51:47.621Z,20.27
2022-08-28T09:54:43.051Z,20.19
2022-08-28T09:57:09.701Z,20.39
2022-08-28T09:59:43.008Z,20.37
2022-08-28T10:02:35.673Z,20.43
2022-08-28T10:05:25.817Z,20.38
2022-08-28T10:07:57.836Z,20.30
2022-08-28T10:10:37.025Z,20.36
2022-08-28T10:13:09.892Z,20.38
2022-08-28T10:15:58.517Z,20.31
2022-08-28T10:18:40.044Z,20.39
2022-08-28T10:21:08.046Z,20.43
2022-08-28T10:23:47.012Z,20.44
2022-08-28T10:26:23.017Z,20.40
2022-08-28T10:29:11.456Z,20.45
2022-08-28T10:32:17.045Z,20.56
2022-08-28T10:35:23.024Z,20.54
2022-08-28T10:38:08.804Z,20.48
2022-08-28T10:40:43.994Z,20.54
2022-08-28T10:43:19.988Z,20.48
2022-08-28T10:46:01.450Z,20.50
2022-08-28T10:48:32.430Z,20.62
2022-08-28T10:51:05.981Z,20.54
2022-08-28T10:53:38.407Z,20.61
2022-08-28T10:56:31.971Z,20.64
2022-08-28T10:58:59.340Z,20.58
2022-08-28T11:01:35.214Z,20.61
2022-08-28T11:17:41.019Z,21.04
2022-08-28T11:20:25.558Z,21.19
2022-08-28T11:23:05.051Z,21.39
2022-08-28T11:25:45.458Z,21.22
2022-08-28T11:28:31.060Z,21.29
2022-08-28T11:31:08.085Z,21.08
2022-08-28T11:33:44.039Z,21.22
2022-08-28T11:36:12.971Z,21.09
2022-08-28T11:39:12.035Z,21.13
2022-08-28T11:42:06.020Z,21.20
2022-08-28T11:44:43.706Z,21.01
2022-08-28T11:47:42.052Z,21.16
2022-08-28T11:50:23.564Z,21.25
2022-08-28T11:53:00.036Z,21.23
2022-08-28T11:55:45.059Z,21.27
2022-08-28T11:58:51.039Z,21.33
2022-08-28T12:01:36.046Z,21.36
2022-08-28T12:04:12.341Z,21.39
2022-08-28T12:06:52.027Z,21.42
2022-08-28T12:09:39.734Z,21.49
2022-08-28T12:12:33.034Z,21.36
2022-08-28T12:15:02.537Z,21.41
2022-08-28T12:17:52.999Z,21.39
2022-08-28T12:20:45.684Z,21.50
2022-08-28T12:23:46.025Z,21.37
2022-08-28T12:26:29.077Z,21.37
2022-08-28T12:29:00.321Z,21.42
2022-08-28T12:32:22.002Z,21.35
2022-08-28T12:35:04.062Z,21.27
2022-08-28T12:37:39.472Z,21.23
2022-08-28T12:40:44.100Z,21.29
2022-08-28T12:43:19.008Z,21.27
2022-08-28T12:46:19.073Z,21.20
2022-08-28T12:48:50.370Z,21.17
2022-08-28T12:51:30.024Z,21.04
2022-08-28T12:54:02.974Z,21.00
2022-08-28T12:56:41.009Z,21.03
2022-08-28T12:59:27.468Z,21.11
2022-08-28T13:02:01.098Z,21.12
2022-08-28T13:04:45.025Z,21.05
2022-08-28T13:07:15.603Z,21.07
2022-08-28T13:10:04.000Z,21.07
2022-08-28T13:12:56.662Z,21.06
2022-08-28T13:16:02.748Z,21.08
2022-08-28T13:18:50.009Z,21.14
2022-08-28T13:21:33.378Z,21.10
2022-08-28T13:24:23.596Z,21.10
2022-08-28T13:27:14.007Z,21.04
2022-08-28T13:29:57.133Z,21.02
2022-08-28T13:32:34.021Z,21.05
2022-08-28T13:35:25.577Z,21.09
2022-08-28T13:38:05.025Z,21.19
2022-08-28T13:40:58.391Z,21.18
2022-08-28T13:43:35.024Z,21.15
2022-08-28T13:46:08.058Z,21.14
2022-08-28T13:48:40.968Z,21.17
2022-08-28T13:51:21.158Z,21.13
2022-08-28T13:53:49.082Z,21.11
2022-08-28T13:56:23.026Z,21.09
2022-08-28T13:58:57.453Z,21.09
2022-08-28T14:01:52.086Z,21.12
2022-08-28T14:04:18.826Z,21.18
2022-08-28T14:06:52.175Z,21.14
2022-08-28T14:09:19.365Z,21.22
2022-08-28T14:11:55.984Z,21.12
2022-08-28T14:14:28.976Z,21.19
2022-08-28T14:17:03.128Z,21.14
2022-08-28T14:19:37.001Z,21.09
2022-08-28T14:22:11.015Z,21.12
2022-08-28T14:24:43.993Z,21.23
2022-08-28T14:27:10.805Z,21.23
2022-08-28T14:29:38.243Z,21.09
2022-08-28T14:32:12.027Z,21.09
2022-08-28T14:34:44.974Z,20.92
2022-08-28T14:37:11.765Z,20.78
2022-08-28T14:39:45.140Z,20.67
2022-08-28T14:42:13.044Z,20.60
2022-08-28T14:44:47.013Z,20.59
2022-08-28T14:47:20.030Z,20.56
2022-08-28T14:49:53.138Z,20.38
2022-08-28T14:52:19.969Z,20.33
2022-08-28T14:54:53.017Z,20.45
2022-08-28T14:57:27.005Z,20.40
2022-08-28T14:59:53.716Z,20.39
2022-08-28T15:02:27.043Z,20.38
2022-08-28T15:04:54.251Z,20.30
2022-08-28T15:07:28.982Z,20.27
2022-08-28T15:09:55.713Z,20.12
2022-08-28T15:12:29.012Z,20.22
2022-08-28T15:14:57.180Z,20.08
2022-08-28T15:17:36.992Z,20.01
2022-08-28T15:20:12.399Z,19.98
2022-08-28T15:22:45.986Z,19.97
2022-08-28T15:25:12.751Z,20.00
2022-08-28T15:27:46.024Z,20.02
2022-08-28T15:30:12.877Z,20.20
2022-08-28T15:32:48.966Z,20.23
2022-08-28T15:35:16.474Z,20.22
2022-08-28T15:37:50.069Z,20.19
2022-08-28T15:40:36.085Z,20.22
2022-08-28T15:43:09.024Z,20.39
2022-08-28T15:45:37.655Z,20.36
2022-08-28T15:48:04.508Z,20.26
2022-08-28T15:50:37.963Z,20.21
2022-08-28T15:53:06.170Z,20.21
2022-08-28T15:55:40.963Z,20.40
2022-08-28T15:58:14.532Z,20.42
2022-08-28T16:00:49.025Z,20.38
2022-08-28T16:03:21.974Z,20.37
2022-08-28T16:05:54.956Z,20.38
2022-08-28T16:08:21.749Z,20.44
2022-08-28T16:10:50.133Z,20.47
2022-08-28T16:13:23.973Z,20.43
2022-08-28T16:16:11.023Z,20.34
2022-08-28T16:18:38.109Z,20.31
2022-08-28T16:21:05.623Z,20.40
2022-08-28T16:23:39.989Z,20.39
2022-08-28T16:26:08.207Z,20.40
2022-08-28T16:28:41.979Z,20.41
2022-08-28T16:31:19.139Z,20.38
2022-08-28T16:33:53.979Z,20.38
2022-08-28T16:36:26.963Z,20.39
2022-08-28T16:39:03.498Z,20.31
2022-08-28T16:41:38.007Z,20.31
2022-08-28T16:44:05.561Z,20.34
2022-08-28T16:46:39.048Z,20.41
2022-08-28T16:49:05.829Z,20.33
2022-08-28T16:51:38.985Z,20.25
2022-08-28T16:54:06.967Z,20.25
2022-08-28T16:56:40.953Z,20.25
2022-08-28T16:59:10.562Z,20.33
2022-08-28T17:01:45.061Z,20.27
2022-08-28T17:04:18.968Z,20.25
2022-08-28T17:06:52.018Z,20.23
2022-08-28T17:09:20.963Z,20.26
2022-08-28T17:11:57.637Z,20.26
2022-08-28T17:14:32.975Z,20.40
2022-08-28T17:17:20.014Z,20.41
2022-08-28T17:19:46.761Z,20.39
2022-08-28T17:22:38.954Z,20.25
2022-08-28T17:25:13.540Z,20.23
2022-08-28T17:27:48.054Z,20.13
2022-08-28T17:30:15.599Z,20.04
2022-08-28T17:32:48.972Z,19.97
2022-08-28T17:35:16.062Z,19.93
2022-08-28T17:37:50.979Z,19.94
2022-08-28T17:40:18.044Z,19.86
2022-08-28T17:42:51.953Z,19.90
2022-08-28T17:45:18.691Z,19.94
2022-08-28T17:47:45.423Z,19.92
2022-08-28T17:50:18.981Z,19.83
2022-08-28T17:52:51.954Z,19.85
2022-08-28T17:55:25.960Z,19.74
2022-08-28T17:57:52.736Z,19.74
2022-08-28T18:00:25.971Z,19.74
2022-08-28T18:02:53.748Z,19.77
2022-08-28T18:05:26.963Z,19.86
2022-08-28T18:07:53.974Z,19.87
2022-08-28T18:10:27.985Z,19.86
2022-08-28T18:12:54.668Z,19.73
2022-08-28T18:15:22.228Z,19.67
2022-08-28T18:17:56.971Z,19.67
2022-08-28T18:20:30.959Z,19.66
2022-08-28T18:22:57.761Z,19.66
2022-08-28T18:25:51.203Z,19.65
2022-08-28T18:28:28.957Z,19.65
2022-08-28T18:30:55.786Z,19.60
2022-08-28T18:33:30.938Z,19.74
2022-08-28T18:35:58.270Z,19.71
2022-08-28T18:38:34.974Z,19.70
2022-08-28T18:41:06.846Z,19.74
2022-08-28T18:43:39.977Z,19.73
2022-08-28T18:46:09.276Z,19.69
2022-08-28T18:48:44.986Z,19.72
2022-08-28T18:51:12.628Z,19.59
2022-08-28T18:53:42.597Z,19.56
2022-08-28T18:56:16.957Z,19.52
2022-08-28T18:58:44.271Z,19.54
2022-08-28T19:01:18.073Z,19.50
2022-08-28T19:03:45.073Z,19.53
2022-08-28T19:06:20.013Z,19.60
2022-08-28T19:08:46.856Z,19.69
2022-08-28T19:11:21.012Z,19.74
2022-08-28T19:13:54.222Z,19.70
2022-08-28T19:16:27.988Z,19.71
2022-08-28T19:19:02.992Z,19.71
2022-08-28T19:21:37.960Z,19.71
2022-08-28T19:24:05.274Z,19.75
2022-08-28T19:26:32.164Z,19.82
2022-08-28T19:29:04.961Z,19.83
2022-08-28T19:31:40.021Z,19.79
2022-08-28T19:34:11.337Z,19.95
2022-08-28T19:36:44.955Z,19.89
2022-08-28T19:39:12.281Z,19.91
2022-08-28T19:41:45.948Z,19.94
2022-08-28T19:44:12.638Z,20.04
2022-08-28T19:46:46.001Z,19.97
2022-08-28T19:49:18.954Z,19.91
2022-08-28T19:51:45.714Z,19.93
2022-08-28T19:54:21.044Z,19.94
2022-08-28T19:56:53.938Z,19.98
2022-08-28T19:59:25.157Z,19.90
2022-08-28T20:01:59.959Z,19.84
2022-08-28T20:04:32.930Z,19.89
2022-08-28T20:07:00.733Z,19.84
2022-08-28T20:09:34.947Z,19.82
2022-08-28T20:12:08.930Z,19.75
2022-08-28T20:14:35.645Z,19.78
2022-08-28T20:17:15.934Z,19.81
2022-08-28T20:19:59.704Z,19.76
2022-08-28T20:22:35.945Z,19.86
2022-08-28T20:25:07.045Z,19.88
2022-08-28T20:27:34.112Z,19.86
2022-08-28T20:30:11.152Z,19.81
2022-08-28T20:32:44.914Z,19.82
2022-08-28T20:35:22.100Z,19.79
2022-08-28T20:37:51.321Z,19.75
2022-08-28T20:40:27.983Z,19.75
2022-08-28T20:42:54.965Z,19.85
2022-08-28T20:45:22.117Z,20.00
2022-08-28T20:47:54.950Z,20.00
2022-08-28T20:50:21.729Z,19.89
2022-08-28T20:52:54.985Z,19.93
2022-08-28T20:55:21.710Z,19.94
2022-08-28T20:57:54.943Z,19.83
2022-08-28T21:00:21.627Z,19.79
2022-08-28T21:02:54.917Z,19.69
2022-08-28T21:05:28.066Z,19.65
2022-08-28T21:08:01.913Z,19.64
2022-08-28T21:10:28.661Z,19.64
2022-08-28T21:13:01.949Z,19.65
2022-08-28T21:15:29.345Z,19.68
2022-08-28T21:18:09.983Z,19.62
2022-08-28T21:20:45.937Z,19.54
2022-08-28T21:23:12.856Z,19.53
2022-08-28T21:25:48.918Z,19.53
2022-08-28T21:28:21.925Z,19.47
2022-08-28T21:30:54.928Z,19.49
2022-08-28T21:33:27.959Z,19.42
2022-08-28T21:35:54.589Z,19.39
2022-08-28T21:38:27.965Z,19.42
2022-08-28T21:41:00.926Z,19.45
2022-08-28T21:43:27.580Z,19.35
2022-08-28T21:46:07.069Z,19.28
2022-08-28T21:48:37.332Z,19.30
2022-08-28T21:51:15.942Z,19.36
2022-08-28T21:53:42.804Z,19.41
2022-08-28T21:56:16.930Z,19.41
2022-08-28T21:58:50.073Z,19.37
2022-08-28T22:01:17.861Z,19.40
2022-08-28T22:03:51.909Z,19.37
2022-08-28T22:06:20.907Z,19.46
2022-08-28T22:08:54.915Z,19.58
2022-08-28T22:11:25.124Z,19.59
2022-08-28T22:14:02.915Z,19.61
2022-08-28T22:16:35.930Z,19.62
2022-08-28T22:19:09.294Z,19.71
2022-08-28T22:22:00.989Z,19.72
2022-08-28T22:24:27.680Z,19.66
2022-08-28T22:27:00.931Z,19.70
2022-08-28T22:29:27.674Z,19.66
2022-08-28T22:32:00.979Z,19.74
2022-08-28T22:34:27.742Z,19.78
2022-08-28T22:37:00.932Z,19.73
2022-08-28T22:39:27.663Z,19.68
2022-08-28T22:41:54.467Z,19.75
2022-08-28T22:44:27.916Z,19.72
2022-08-28T22:46:54.660Z,19.78
2022-08-28T22:49:27.887Z,19.80
2022-08-28T22:52:00.902Z,19.73
2022-08-28T22:54:33.895Z,19.74
2022-08-28T22:57:06.931Z,19.69
2022-08-28T22:59:41.080Z,19.67
2022-08-28T23:02:08.325Z,19.65
2022-08-28T23:04:41.935Z,19.63
2022-08-28T23:07:09.192Z,19.49
2022-08-28T23:09:42.924Z,19.34
2022-08-28T23:12:09.879Z,19.21
2022-08-28T23:14:47.781Z,19.16
2022-08-28T23:17:22.025Z,19.11
2022-08-28T23:19:55.893Z,19.10
2022-08-28T23:22:23.536Z,19.08
2022-08-28T23:24:56.958Z,19.13
2022-08-28T23:27:38.960Z,19.17
2022-08-28T23:30:14.994Z,19.36
2022-08-28T23:32:41.935Z,19.34
2022-08-28T23:35:18.072Z,19.43
2022-08-28T23:37:48.687Z,19.47
2022-08-28T23:40:28.950Z,19.42
2022-08-28T23:42:57.075Z,19.29
2022-08-28T23:45:23.997Z,19.12
2022-08-28T23:47:57.897Z,19.09
2022-08-28T23:50:26.547Z,18.97
2022-08-28T23:53:00.914Z,19.01
2022-08-28T23:55:28.887Z,19.04
2022-08-28T23:58:02.062Z,19.07
